createdAt,value
2019-02-11T00:01:04.346Z,99.90
2019-02-11T00:03:08.009Z,99.90
2019-02-11T00:05:11.693Z,99.90
2019-02-11T00:07:15.271Z,99.90
2019-02-11T00:09:18.837Z,99.90
2019-02-11T00:11:22.518Z,99.90
2019-02-11T00:13:26.098Z,99.90
2019-02-11T00:15:29.780Z,99.90
2019-02-11T00:17:33.406Z,99.90
2019-02-11T00:19:37.053Z,99.90
2019-02-11T00:21:40.672Z,99.90
2019-02-11T00:23:44.278Z,99.90
2019-02-11T00:25:47.858Z,99.90
2019-02-11T00:27:51.436Z,99.90
2019-02-11T00:29:55.011Z,99.90
2019-02-11T00:31:58.626Z,99.90
2019-02-11T00:34:02.224Z,99.90
2019-02-11T00:36:05.842Z,99.90
2019-02-11T00:38:09.395Z,99.90
2019-02-11T00:40:13.112Z,99.90
2019-02-11T00:42:16.723Z,99.90
2019-02-11T00:44:20.363Z,99.90
2019-02-11T00:46:23.960Z,99.90
2019-02-11T00:48:27.605Z,99.90
2019-02-11T00:50:31.183Z,99.90
2019-02-11T00:52:34.792Z,99.90
2019-02-11T00:54:38.374Z,99.90
2019-02-11T00:56:41.985Z,99.90
2019-02-11T00:58:45.614Z,99.90
2019-02-11T01:00:49.194Z,99.90
2019-02-11T01:02:52.873Z,99.90
2019-02-11T01:04:56.439Z,99.90
2019-02-11T01:07:00.062Z,99.90
2019-02-11T01:09:05.145Z,99.90
2019-02-11T01:11:08.790Z,99.90
2019-02-11T01:13:12.400Z,99.90
2019-02-11T01:15:16.045Z,99.90
2019-02-11T01:17:19.672Z,99.90
2019-02-11T01:19:23.317Z,99.90
2019-02-11T01:21:26.898Z,99.90
2019-02-11T01:23:30.547Z,99.90
2019-02-11T01:25:34.133Z,99.90
2019-02-11T01:27:37.819Z,99.90
2019-02-11T01:29:41.457Z,99.90
2019-02-11T01:31:45.041Z,99.90
2019-02-11T01:33:48.653Z,99.90
2019-02-11T01:35:52.234Z,99.90
2019-02-11T01:37:55.865Z,99.90
2019-02-11T01:39:59.435Z,99.90
2019-02-11T01:42:03.392Z,99.90
2019-02-11T01:44:07.080Z,99.90
2019-02-11T01:46:10.724Z,99.90
2019-02-11T01:48:14.348Z,99.90
2019-02-11T01:50:18.009Z,99.90
2019-02-11T01:52:23.467Z,99.90
2019-02-11T01:54:27.160Z,99.90
2019-02-11T01:56:30.742Z,99.90
2019-02-11T01:58:34.360Z,99.90
2019-02-11T02:00:38.072Z,99.90
2019-02-11T02:02:41.799Z,99.90
2019-02-11T02:04:45.409Z,99.00
2019-02-11T02:06:49.056Z,99.90
2019-02-11T02:08:52.666Z,99.20
2019-02-11T02:10:56.239Z,98.70
2019-02-11T02:12:59.881Z,98.50
2019-02-11T02:15:04.578Z,98.30
2019-02-11T02:17:08.151Z,98.40
2019-02-11T02:19:11.776Z,98.80
2019-02-11T02:21:15.353Z,98.70
2019-02-11T02:23:19.006Z,98.90
2019-02-11T02:25:22.707Z,98.90
2019-02-11T02:27:26.338Z,98.00
2019-02-11T02:29:31.314Z,98.40
2019-02-11T02:31:34.920Z,99.70
2019-02-11T02:33:38.529Z,98.60
2019-02-11T02:35:42.217Z,99.10
2019-02-11T02:37:45.791Z,98.90
2019-02-11T02:39:49.419Z,99.00
2019-02-11T02:41:53.146Z,99.40
2019-02-11T02:43:56.732Z,99.50
2019-02-11T02:46:00.424Z,99.50
2019-02-11T02:48:04.045Z,99.90
2019-02-11T02:50:09.399Z,99.90
2019-02-11T02:52:13.008Z,99.90
2019-02-11T02:54:16.556Z,99.90
2019-02-11T02:56:20.230Z,99.90
2019-02-11T02:58:23.819Z,99.90
2019-02-11T03:00:27.570Z,99.90
2019-02-11T03:02:31.146Z,99.90
2019-02-11T03:04:34.847Z,99.90
2019-02-11T03:06:38.417Z,99.90
2019-02-11T03:08:42.130Z,99.90
2019-02-11T03:10:45.747Z,99.90
2019-02-11T03:12:49.404Z,99.90
2019-02-11T03:14:53.073Z,99.90
2019-02-11T03:16:56.644Z,99.90
2019-02-11T03:19:00.222Z,99.90
2019-02-11T03:21:03.895Z,99.90
2019-02-11T03:23:07.478Z,99.90
2019-02-11T03:25:11.225Z,99.90
2019-02-11T03:27:15.369Z,99.90
2019-02-11T03:29:19.004Z,99.90
2019-02-11T03:31:22.628Z,99.90
2019-02-11T03:33:28.378Z,99.90
2019-02-11T03:35:31.964Z,99.90
2019-02-11T03:37:35.551Z,99.90
2019-02-11T03:39:39.157Z,99.90
2019-02-11T03:41:42.883Z,99.90
2019-02-11T03:43:46.539Z,99.90
2019-02-11T03:45:50.207Z,99.90
2019-02-11T03:47:53.854Z,99.90
2019-02-11T03:49:57.426Z,99.90
2019-02-11T03:52:01.105Z,99.90
2019-02-11T03:54:04.836Z,99.90
2019-02-11T03:56:08.507Z,99.90
2019-02-11T03:58:12.151Z,99.90
2019-02-11T04:00:15.831Z,99.90
2019-02-11T04:02:19.477Z,99.90
2019-02-11T04:04:23.124Z,99.90
2019-02-11T04:06:26.805Z,99.90
2019-02-11T04:08:30.386Z,99.90
2019-02-11T04:10:33.989Z,99.90
2019-02-11T04:12:37.644Z,99.90
2019-02-11T04:14:41.287Z,99.90
2019-02-11T04:16:44.912Z,99.90
2019-02-11T04:18:48.548Z,99.90
2019-02-11T04:20:52.150Z,99.90
2019-02-11T04:22:56.252Z,99.90
2019-02-11T04:24:59.823Z,99.90
2019-02-11T04:27:03.507Z,99.90
2019-02-11T04:29:07.080Z,99.90
2019-02-11T04:31:12.793Z,99.90
2019-02-11T04:33:16.374Z,99.90
2019-02-11T04:35:20.062Z,99.90
2019-02-11T04:37:23.826Z,99.90
2019-02-11T04:39:27.412Z,99.90
2019-02-11T04:41:31.023Z,99.90
2019-02-11T04:43:34.664Z,99.90
2019-02-11T04:45:38.304Z,99.90
2019-02-11T04:47:41.936Z,99.90
2019-02-11T04:49:45.496Z,99.90
2019-02-11T04:51:49.108Z,99.90
2019-02-11T04:53:52.754Z,99.90
2019-02-11T04:55:56.401Z,99.90
2019-02-11T04:58:00.020Z,99.90
2019-02-11T05:00:05.966Z,99.90
2019-02-11T05:02:09.937Z,99.90
2019-02-11T05:04:13.670Z,99.90
2019-02-11T05:06:17.248Z,99.90
2019-02-11T05:08:20.861Z,99.90
2019-02-11T05:10:24.504Z,99.90
2019-02-11T05:12:28.190Z,99.90
2019-02-11T05:14:31.902Z,99.90
2019-02-11T05:16:35.613Z,99.90
2019-02-11T05:18:40.009Z,99.90
2019-02-11T05:20:43.604Z,99.90
2019-02-11T05:22:47.261Z,99.90
2019-02-11T05:24:50.821Z,99.90
2019-02-11T05:26:54.482Z,99.90
2019-02-11T05:28:58.088Z,99.90
2019-02-11T05:31:01.667Z,99.90
2019-02-11T05:33:05.394Z,99.90
2019-02-11T05:35:09.444Z,99.90
2019-02-11T05:37:13.164Z,99.90
2019-02-11T05:39:16.853Z,99.90
2019-02-11T05:41:21.382Z,99.90
2019-02-11T05:43:25.171Z,99.90
2019-02-11T05:45:28.873Z,99.90
2019-02-11T05:47:32.545Z,99.90
2019-02-11T05:49:36.267Z,99.90
2019-02-11T05:51:41.323Z,99.90
2019-02-11T05:53:45.121Z,99.90
2019-02-11T05:55:48.793Z,99.90
2019-02-11T05:57:52.457Z,99.90
2019-02-11T05:59:56.187Z,99.90
2019-02-11T06:01:59.869Z,99.90
2019-02-11T06:04:03.568Z,99.90
2019-02-11T06:06:07.278Z,99.90
2019-02-11T06:08:10.972Z,99.90
2019-02-11T06:10:14.668Z,99.90
2019-02-11T06:12:18.404Z,99.90
2019-02-11T06:14:22.061Z,99.90
2019-02-11T06:16:25.637Z,99.90
2019-02-11T06:18:29.461Z,99.90
2019-02-11T06:20:33.159Z,99.90
2019-02-11T06:22:36.838Z,99.90
2019-02-11T06:24:40.532Z,99.90
2019-02-11T06:26:46.166Z,99.90
2019-02-11T06:28:49.573Z,99.90
2019-02-11T06:30:53.334Z,99.90
2019-02-11T06:32:57.153Z,99.90
2019-02-11T06:35:00.868Z,99.90
2019-02-11T06:37:04.671Z,99.90
2019-02-11T06:39:08.598Z,99.90
2019-02-11T06:41:12.599Z,99.90
2019-02-11T06:43:16.631Z,99.90
2019-02-11T06:45:20.536Z,99.90
2019-02-11T06:47:24.452Z,99.90
2019-02-11T06:49:28.393Z,99.90
2019-02-11T06:51:32.212Z,99.90
2019-02-11T06:53:36.055Z,99.90
2019-02-11T06:55:39.821Z,99.90
2019-02-11T06:57:43.767Z,99.90
2019-02-11T06:59:47.634Z,99.90
2019-02-11T07:01:51.517Z,99.90
2019-02-11T07:03:55.378Z,99.90
2019-02-11T07:05:59.222Z,99.90
2019-02-11T07:08:02.977Z,99.90
2019-02-11T07:10:09.975Z,99.90
2019-02-11T07:12:13.840Z,99.90
2019-02-11T07:14:17.686Z,99.90
2019-02-11T07:16:21.589Z,99.90
2019-02-11T07:18:25.448Z,99.90
2019-02-11T07:20:29.255Z,99.90
2019-02-11T07:22:33.148Z,99.90
2019-02-11T07:24:36.988Z,99.90
2019-02-11T07:26:42.244Z,99.90
2019-02-11T07:28:46.351Z,99.90
2019-02-11T07:30:50.726Z,99.90
2019-02-11T07:32:54.643Z,99.90
2019-02-11T07:35:00.338Z,99.90
2019-02-11T07:37:04.158Z,99.90
2019-02-11T07:39:09.207Z,99.90
2019-02-11T07:41:13.155Z,99.90
2019-02-11T07:43:18.546Z,99.90
2019-02-11T07:45:29.951Z,99.90
2019-02-11T07:47:29.532Z,99.90
2019-02-11T07:49:33.681Z,99.90
2019-02-11T07:51:42.232Z,99.90
2019-02-11T07:53:43.006Z,99.90
2019-02-11T07:55:46.830Z,99.90
2019-02-11T07:57:50.665Z,99.90
2019-02-11T07:59:54.488Z,99.90
2019-02-11T08:01:58.356Z,99.90
2019-02-11T08:04:02.242Z,99.90
2019-02-11T08:06:06.078Z,99.90
2019-02-11T08:08:10.326Z,99.90
2019-02-11T08:10:14.566Z,99.90
2019-02-11T08:12:18.721Z,99.90
2019-02-11T08:14:22.500Z,99.90
2019-02-11T08:16:26.426Z,99.20
2019-02-11T08:18:30.217Z,99.90
2019-02-11T08:20:34.163Z,83.70
2019-02-11T08:22:38.001Z,70.10
2019-02-11T08:24:41.832Z,66.30
2019-02-11T08:26:45.735Z,66.30
2019-02-11T08:28:49.563Z,70.10
2019-02-11T08:30:53.395Z,72.20
2019-02-11T08:32:57.278Z,73.90
2019-02-11T08:35:01.094Z,79.40
2019-02-11T08:37:04.966Z,85.00
2019-02-11T08:39:10.324Z,80.50
2019-02-11T08:41:14.239Z,67.80
2019-02-11T08:43:18.153Z,57.90
2019-02-11T08:45:21.973Z,48.10
2019-02-11T08:47:25.854Z,49.20
2019-02-11T08:49:30.140Z,50.40
2019-02-11T08:51:34.156Z,44.50
2019-02-11T08:53:38.035Z,44.50
2019-02-11T08:55:41.870Z,42.50
2019-02-11T08:57:45.680Z,42.40
2019-02-11T08:59:49.484Z,46.30
2019-02-11T09:01:53.377Z,48.30
2019-02-11T09:03:57.229Z,49.70
2019-02-11T09:06:01.104Z,47.30
2019-02-11T09:08:04.999Z,43.30
2019-02-11T09:10:11.387Z,40.20
2019-02-11T09:12:15.265Z,41.90
2019-02-11T09:14:19.141Z,42.70
2019-02-11T09:16:23.020Z,45.80
2019-02-11T09:18:26.884Z,48.60
2019-02-11T09:20:30.700Z,51.70
2019-02-11T09:22:34.554Z,51.30
2019-02-11T09:24:38.387Z,54.00
2019-02-11T09:26:42.254Z,55.90
2019-02-11T09:28:46.136Z,53.60
2019-02-11T09:30:50.378Z,55.70
2019-02-11T09:32:54.232Z,55.70
2019-02-11T09:34:58.042Z,57.70
2019-02-11T09:37:01.944Z,57.60
2019-02-11T09:39:06.077Z,57.50
2019-02-11T09:41:10.034Z,58.80
2019-02-11T09:43:13.938Z,63.10
2019-02-11T09:45:23.156Z,61.20
2019-02-11T09:47:26.986Z,62.10
2019-02-11T09:49:30.807Z,64.40
2019-02-11T09:51:37.189Z,63.40
2019-02-11T09:53:41.015Z,62.40
2019-02-11T09:55:44.905Z,63.20
2019-02-11T09:57:48.814Z,57.70
2019-02-11T09:59:52.609Z,58.80
2019-02-11T10:01:56.493Z,58.00
2019-02-11T10:04:00.300Z,58.70
2019-02-11T10:06:04.178Z,55.30
2019-02-11T10:08:07.992Z,55.00
2019-02-11T10:10:11.748Z,56.80
2019-02-11T10:12:21.289Z,53.10
2019-02-11T10:14:21.217Z,54.60
2019-02-11T10:16:24.968Z,55.40
2019-02-11T10:18:28.862Z,55.00
2019-02-11T10:20:34.402Z,54.50
2019-02-11T10:22:38.273Z,54.50
2019-02-11T10:24:42.095Z,53.60
2019-02-11T10:26:47.157Z,53.90
2019-02-11T10:28:51.226Z,56.00
2019-02-11T10:30:56.387Z,53.10
2019-02-11T10:33:00.348Z,54.10
2019-02-11T10:35:05.241Z,52.20
2019-02-11T10:37:09.086Z,55.10
2019-02-11T10:39:12.970Z,53.00
2019-02-11T10:41:16.644Z,51.70
2019-02-11T10:43:20.553Z,54.80
2019-02-11T10:45:24.361Z,51.60
2019-02-11T10:47:28.146Z,49.30
2019-02-11T10:49:32.020Z,46.10
2019-02-11T10:51:36.003Z,45.70
2019-02-11T10:53:39.764Z,43.60
2019-02-11T10:55:43.663Z,41.00
2019-02-11T10:57:47.550Z,43.10
2019-02-11T10:59:51.344Z,42.80
2019-02-11T11:01:55.150Z,43.90
2019-02-11T11:03:59.112Z,45.20
2019-02-11T11:06:03.083Z,45.80
2019-02-11T11:08:07.193Z,44.40
2019-02-11T11:10:17.122Z,47.90
2019-02-11T11:12:21.132Z,48.30
2019-02-11T11:14:25.024Z,50.70
2019-02-11T11:16:29.884Z,50.50
2019-02-11T11:18:33.842Z,51.90
2019-02-11T11:20:37.656Z,49.50
2019-02-11T11:22:41.560Z,49.60
2019-02-11T11:24:45.426Z,50.00
2019-02-11T11:26:49.340Z,48.80
2019-02-11T11:28:53.158Z,50.30
2019-02-11T11:30:57.037Z,52.60
2019-02-11T11:33:01.030Z,52.80
2019-02-11T11:35:06.865Z,53.40
2019-02-11T11:37:10.619Z,51.20
2019-02-11T11:39:19.555Z,51.90
2019-02-11T11:41:23.608Z,52.40
2019-02-11T11:43:27.550Z,53.60
2019-02-11T11:45:31.322Z,56.00
2019-02-11T11:47:35.264Z,54.30
2019-02-11T11:49:39.157Z,57.80
2019-02-11T11:51:43.033Z,59.60
2019-02-11T11:53:47.877Z,61.90
2019-02-11T11:55:51.793Z,60.80
2019-02-11T11:57:55.517Z,58.40
2019-02-11T11:59:59.371Z,57.60
2019-02-11T12:02:03.269Z,61.00
2019-02-11T12:04:07.154Z,60.60
2019-02-11T12:06:11.018Z,61.30
2019-02-11T12:08:14.864Z,58.30
2019-02-11T12:10:18.813Z,58.30
2019-02-11T12:12:22.786Z,55.30
2019-02-11T12:14:26.659Z,54.50
2019-02-11T12:16:30.511Z,53.60
2019-02-11T12:18:34.366Z,53.50
2019-02-11T12:20:38.263Z,52.10
2019-02-11T12:22:42.316Z,52.70
2019-02-11T12:24:46.232Z,52.40
2019-02-11T12:26:50.095Z,53.50
2019-02-11T12:28:53.928Z,50.40
2019-02-11T12:30:57.781Z,53.50
2019-02-11T12:33:01.653Z,50.60
2019-02-11T12:35:08.495Z,52.50
2019-02-11T12:37:12.402Z,50.50
2019-02-11T12:39:16.222Z,51.60
2019-02-11T12:41:20.051Z,51.70
2019-02-11T12:43:23.945Z,51.70
2019-02-11T12:45:27.712Z,54.30
2019-02-11T12:47:32.535Z,52.00
2019-02-11T12:49:36.364Z,50.50
2019-02-11T12:51:40.358Z,49.80
2019-02-11T12:53:44.221Z,49.10
2019-02-11T12:55:48.051Z,46.40
2019-02-11T12:57:51.905Z,47.80
2019-02-11T12:59:55.782Z,49.30
2019-02-11T13:01:59.550Z,51.10
2019-02-11T13:04:03.374Z,46.40
2019-02-11T13:06:07.222Z,49.40
2019-02-11T13:08:11.128Z,51.30
2019-02-11T13:10:18.151Z,52.30
2019-02-11T13:12:21.984Z,54.70
2019-02-11T13:14:25.879Z,54.20
2019-02-11T13:16:29.765Z,54.00
2019-02-11T13:18:38.887Z,54.30
2019-02-11T13:20:39.205Z,55.50
2019-02-11T13:22:43.042Z,56.00
2019-02-11T13:24:46.785Z,56.30
2019-02-11T13:26:50.577Z,58.70
2019-02-11T13:28:54.310Z,63.20
2019-02-11T13:30:58.742Z,61.70
2019-02-11T13:33:02.470Z,66.10
2019-02-11T13:35:06.453Z,73.10
2019-02-11T13:37:11.216Z,70.10
2019-02-11T13:39:15.130Z,78.70
2019-02-11T13:41:19.133Z,82.10
2019-02-11T13:43:22.898Z,87.20
2019-02-11T13:45:26.802Z,88.10
2019-02-11T13:47:30.679Z,88.50
2019-02-11T13:49:34.542Z,86.10
2019-02-11T13:51:38.361Z,76.00
2019-02-11T13:53:43.817Z,71.30
2019-02-11T13:55:47.813Z,67.40
2019-02-11T13:57:52.129Z,71.90
2019-02-11T13:59:55.934Z,70.90
2019-02-11T14:01:59.804Z,69.40
2019-02-11T14:04:03.674Z,67.60
2019-02-11T14:06:08.460Z,68.50
2019-02-11T14:08:12.331Z,67.10
2019-02-11T14:10:16.240Z,65.30
2019-02-11T14:12:19.965Z,64.80
2019-02-11T14:14:28.515Z,65.20
2019-02-11T14:16:32.171Z,66.10
2019-02-11T14:18:35.877Z,67.90
2019-02-11T14:20:39.599Z,67.80
2019-02-11T14:22:43.282Z,69.40
2019-02-11T14:24:46.841Z,69.00
2019-02-11T14:26:50.496Z,70.20
2019-02-11T14:28:54.152Z,70.30
2019-02-11T14:30:57.988Z,70.00
2019-02-11T14:33:02.556Z,69.70
2019-02-11T14:35:07.778Z,68.50
2019-02-11T14:37:11.542Z,68.00
2019-02-11T14:39:15.261Z,67.90
2019-02-11T14:41:18.840Z,69.10
2019-02-11T14:43:22.561Z,67.00
2019-02-11T14:45:26.303Z,62.00
2019-02-11T14:47:29.929Z,64.40
2019-02-11T14:49:33.677Z,63.70
2019-02-11T14:51:37.249Z,60.40
2019-02-11T14:53:40.881Z,59.70
2019-02-11T14:55:44.543Z,54.60
2019-02-11T14:57:48.227Z,54.40
2019-02-11T14:59:51.868Z,53.20
2019-02-11T15:01:55.500Z,51.10
2019-02-11T15:03:59.184Z,52.50
2019-02-11T15:06:02.759Z,50.60
2019-02-11T15:08:06.505Z,46.70
2019-02-11T15:10:11.867Z,47.80
2019-02-11T15:12:15.482Z,45.30
2019-02-11T15:14:19.213Z,48.50
2019-02-11T15:16:22.844Z,48.30
2019-02-11T15:18:34.088Z,48.40
2019-02-11T15:20:31.727Z,47.90
2019-02-11T15:22:35.393Z,47.30
2019-02-11T15:24:39.017Z,47.00
2019-02-11T15:26:42.575Z,47.00
2019-02-11T15:28:46.176Z,47.50
2019-02-11T15:30:49.821Z,46.60
2019-02-11T15:32:53.385Z,48.70
2019-02-11T15:34:57.054Z,49.20
2019-02-11T15:37:00.628Z,48.80
2019-02-11T15:39:04.952Z,49.80
2019-02-11T15:41:08.540Z,49.30
2019-02-11T15:43:12.166Z,51.40
2019-02-11T15:45:16.580Z,50.40
2019-02-11T15:47:20.199Z,51.00
2019-02-11T15:49:23.932Z,50.30
2019-02-11T15:51:27.515Z,49.90
2019-02-11T15:53:31.189Z,51.00
2019-02-11T15:55:39.092Z,52.10
2019-02-11T15:57:42.720Z,51.40
2019-02-11T15:59:46.330Z,51.00
2019-02-11T16:01:50.033Z,51.50
2019-02-11T16:03:53.639Z,50.00
2019-02-11T16:05:57.226Z,50.40
2019-02-11T16:08:00.860Z,51.50
2019-02-11T16:10:07.039Z,50.80
2019-02-11T16:12:10.687Z,50.60
2019-02-11T16:14:14.476Z,51.10
2019-02-11T16:16:18.077Z,51.60
2019-02-11T16:18:21.643Z,52.30
2019-02-11T16:20:25.323Z,54.00
2019-02-11T16:22:29.062Z,52.40
2019-02-11T16:24:32.746Z,51.90
2019-02-11T16:26:38.710Z,52.30
2019-02-11T16:28:42.357Z,53.30
2019-02-11T16:30:46.053Z,55.60
2019-02-11T16:32:49.798Z,57.00
2019-02-11T16:34:53.401Z,56.80
2019-02-11T16:36:57.030Z,58.10
2019-02-11T16:39:00.624Z,58.80
2019-02-11T16:41:04.294Z,61.20
2019-02-11T16:43:07.932Z,61.70
2019-02-11T16:45:11.784Z,61.00
2019-02-11T16:47:17.412Z,61.30
2019-02-11T16:49:21.034Z,63.40
2019-02-11T16:51:24.724Z,63.20
2019-02-11T16:53:28.293Z,63.60
2019-02-11T16:55:32.128Z,64.50
2019-02-11T16:57:35.776Z,68.50
2019-02-11T16:59:39.488Z,68.90
2019-02-11T17:01:43.269Z,69.00
2019-02-11T17:03:47.015Z,68.40
2019-02-11T17:05:51.827Z,68.30
2019-02-11T17:07:55.495Z,67.30
2019-02-11T17:09:59.164Z,66.90
2019-02-11T17:12:03.032Z,67.40
2019-02-11T17:14:07.273Z,67.60
2019-02-11T17:16:10.881Z,68.70
2019-02-11T17:18:16.002Z,66.90
2019-02-11T17:20:19.707Z,68.20
2019-02-11T17:22:23.664Z,64.10
2019-02-11T17:24:27.302Z,65.60
2019-02-11T17:26:31.066Z,64.90
2019-02-11T17:28:36.315Z,64.70
2019-02-11T17:30:42.614Z,63.00
2019-02-11T17:32:46.298Z,63.10
2019-02-11T17:34:49.882Z,64.40
2019-02-11T17:36:54.938Z,65.40
2019-02-11T17:38:58.515Z,65.40
2019-02-11T17:41:02.319Z,65.70
2019-02-11T17:43:06.033Z,65.90
2019-02-11T17:45:24.646Z,66.70
2019-02-11T17:47:28.376Z,66.30
2019-02-11T17:49:32.091Z,65.40
2019-02-11T17:51:35.869Z,67.60
2019-02-11T17:53:39.447Z,66.80
2019-02-11T17:55:43.144Z,66.90
2019-02-11T17:57:46.917Z,67.30
2019-02-11T17:59:50.543Z,67.80
2019-02-11T18:01:54.259Z,67.20
2019-02-11T18:03:57.812Z,65.40
2019-02-11T18:06:01.492Z,64.70
2019-02-11T18:08:05.222Z,65.40
2019-02-11T18:10:08.867Z,65.10
2019-02-11T18:12:12.477Z,64.30
2019-02-11T18:14:16.339Z,63.20
2019-02-11T18:16:20.092Z,64.30
2019-02-11T18:18:23.733Z,65.30
2019-02-11T18:20:27.374Z,66.90
2019-02-11T18:22:31.132Z,68.10
2019-02-11T18:24:34.870Z,69.30
2019-02-11T18:26:40.033Z,67.40
2019-02-11T18:28:43.594Z,69.60
2019-02-11T18:30:47.305Z,67.90
2019-02-11T18:32:50.905Z,68.70
2019-02-11T18:34:54.572Z,70.10
2019-02-11T18:36:58.643Z,69.30
2019-02-11T18:39:02.288Z,69.50
2019-02-11T18:41:05.940Z,71.70
2019-02-11T18:43:10.000Z,70.80
2019-02-11T18:45:15.217Z,71.90
2019-02-11T18:47:18.808Z,73.80
2019-02-11T18:49:23.467Z,76.40
2019-02-11T18:51:27.062Z,78.00
2019-02-11T18:53:31.089Z,78.50
2019-02-11T18:55:34.751Z,80.40
2019-02-11T18:57:38.444Z,83.20
2019-02-11T18:59:42.072Z,83.10
2019-02-11T19:01:47.263Z,83.60
2019-02-11T19:03:52.479Z,83.90
2019-02-11T19:05:57.341Z,84.20
2019-02-11T19:08:03.779Z,83.30
2019-02-11T19:10:13.193Z,84.50
2019-02-11T19:12:21.368Z,84.60
2019-02-11T19:14:26.518Z,84.10
2019-02-11T19:16:31.869Z,84.40
2019-02-11T19:18:35.833Z,84.80
2019-02-11T19:20:40.421Z,86.60
2019-02-11T19:22:44.494Z,86.30
2019-02-11T19:24:48.477Z,86.50
2019-02-11T19:26:55.077Z,87.40
2019-02-11T19:28:59.676Z,89.60
2019-02-11T19:31:03.310Z,88.70
2019-02-11T19:33:07.177Z,89.30
2019-02-11T19:35:10.897Z,89.40
2019-02-11T19:37:14.564Z,89.30
2019-02-11T19:39:18.250Z,88.80
2019-02-11T19:41:21.840Z,87.80
2019-02-11T19:43:26.033Z,88.90
2019-02-11T19:45:29.794Z,88.50
2019-02-11T19:47:35.539Z,88.40
2019-02-11T19:49:39.189Z,88.60
2019-02-11T19:51:43.087Z,88.10
2019-02-11T19:53:46.939Z,89.70
2019-02-11T19:55:51.018Z,90.50
2019-02-11T19:57:54.768Z,91.00
2019-02-11T19:59:58.785Z,91.20
2019-02-11T20:02:03.075Z,90.40
2019-02-11T20:04:09.294Z,90.60
2019-02-11T20:06:14.277Z,90.90
2019-02-11T20:08:19.798Z,90.60
2019-02-11T20:10:24.452Z,91.60
2019-02-11T20:12:28.092Z,92.50
2019-02-11T20:14:31.887Z,93.30
2019-02-11T20:16:35.473Z,92.40
2019-02-11T20:18:40.790Z,92.50
2019-02-11T20:20:44.513Z,92.60
2019-02-11T20:22:49.436Z,92.80
2019-02-11T20:24:53.178Z,94.70
2019-02-11T20:26:56.808Z,96.30
2019-02-11T20:29:00.467Z,97.10
2019-02-11T20:31:04.234Z,96.80
2019-02-11T20:33:07.948Z,97.10
2019-02-11T20:35:11.642Z,97.30
2019-02-11T20:37:15.335Z,98.40
2019-02-11T20:39:21.922Z,98.80
2019-02-11T20:41:25.730Z,99.00
2019-02-11T20:43:29.817Z,99.30
2019-02-11T20:45:33.589Z,99.60
2019-02-11T20:47:37.199Z,99.10
2019-02-11T20:49:42.272Z,99.30
2019-02-11T20:51:45.957Z,99.30
2019-02-11T20:53:49.658Z,99.90
2019-02-11T20:55:53.348Z,99.90
2019-02-11T20:57:59.082Z,99.90
2019-02-11T21:00:02.909Z,99.90
2019-02-11T21:02:07.778Z,99.90
2019-02-11T21:04:12.016Z,99.90
2019-02-11T21:06:16.271Z,99.90
2019-02-11T21:08:20.409Z,99.90
2019-02-11T21:10:25.752Z,99.90
2019-02-11T21:12:29.393Z,99.90
2019-02-11T21:14:33.081Z,99.90
2019-02-11T21:16:36.791Z,99.90
2019-02-11T21:18:40.477Z,99.90
2019-02-11T21:20:45.840Z,99.90
2019-02-11T21:22:49.563Z,99.90
2019-02-11T21:24:53.165Z,99.90
2019-02-11T21:26:56.743Z,99.90
2019-02-11T21:29:00.378Z,99.90
2019-02-11T21:31:04.060Z,99.90
2019-02-11T21:33:07.704Z,99.90
2019-02-11T21:35:12.468Z,99.90
2019-02-11T21:37:16.109Z,99.90
2019-02-11T21:39:19.801Z,99.90
2019-02-11T21:41:23.589Z,99.90
2019-02-11T21:43:27.159Z,99.90
2019-02-11T21:45:30.845Z,99.90
2019-02-11T21:47:34.490Z,99.90
2019-02-11T21:49:40.092Z,99.90
2019-02-11T21:51:43.843Z,99.90
2019-02-11T21:53:48.541Z,99.90
2019-02-11T21:55:52.152Z,99.90
2019-02-11T21:57:55.799Z,99.90
2019-02-11T21:59:59.500Z,99.90
2019-02-11T22:02:03.151Z,99.90
2019-02-11T22:04:06.725Z,99.90
2019-02-11T22:06:10.351Z,99.90
2019-02-11T22:08:13.925Z,99.90
2019-02-11T22:10:22.582Z,99.90
2019-02-11T22:12:26.235Z,99.90
2019-02-11T22:14:30.067Z,99.90
2019-02-11T22:16:33.816Z,99.90
2019-02-11T22:18:37.431Z,99.90
2019-02-11T22:20:41.054Z,99.90
2019-02-11T22:22:44.781Z,99.90
2019-02-11T22:24:48.365Z,99.90
2019-02-11T22:26:52.130Z,99.90
2019-02-11T22:28:55.702Z,99.90
2019-02-11T22:30:59.375Z,99.90
2019-02-11T22:33:02.956Z,99.90
2019-02-11T22:35:09.200Z,99.90
2019-02-11T22:37:12.897Z,99.90
2019-02-11T22:39:16.541Z,99.90
2019-02-11T22:41:20.153Z,99.90
2019-02-11T22:43:23.809Z,99.90
2019-02-11T22:45:28.660Z,99.90
2019-02-11T22:47:32.300Z,99.90
2019-02-11T22:49:35.982Z,99.90
2019-02-11T22:51:39.671Z,99.90
2019-02-11T22:53:44.809Z,99.90
2019-02-11T22:55:48.375Z,99.90
2019-02-11T22:57:51.985Z,99.90
2019-02-11T22:59:55.578Z,99.90
2019-02-11T23:01:59.437Z,99.90
2019-02-11T23:04:03.045Z,99.90
2019-02-11T23:06:06.964Z,99.90
2019-02-11T23:08:10.725Z,99.90
2019-02-11T23:10:14.456Z,99.90
2019-02-11T23:12:18.130Z,99.90
2019-02-11T23:14:21.858Z,99.90
2019-02-11T23:16:25.501Z,99.90
2019-02-11T23:18:29.186Z,99.90
2019-02-11T23:20:34.084Z,99.90
2019-02-11T23:22:37.700Z,99.90
2019-02-11T23:24:41.270Z,99.90
2019-02-11T23:26:44.845Z,99.90
2019-02-11T23:28:48.531Z,99.90
2019-02-11T23:30:52.204Z,99.90
2019-02-11T23:32:55.801Z,99.90
2019-02-11T23:34:59.531Z,99.90
2019-02-11T23:37:03.194Z,99.90
2019-02-11T23:39:08.888Z,99.90
2019-02-11T23:41:12.551Z,99.90
2019-02-11T23:43:16.187Z,99.90
2019-02-11T23:45:19.840Z,99.90
2019-02-11T23:47:23.465Z,99.90
2019-02-11T23:49:27.420Z,99.90
2019-02-11T23:51:31.068Z,99.90
2019-02-11T23:53:34.689Z,99.90
2019-02-11T23:55:38.392Z,99.90
2019-02-11T23:57:41.996Z,99.90
2019-02-11T23:59:45.572Z,99.90
